sensor_id;sensor_type;location;lat;lon;timestamp;P1;durP1;ratioP1;P2;durP2;ratioP2
15603;SDS011;7902;49.042;9.092;2023-03-31T00:01:49;19.20;;;2.90;;
15603;SDS011;7902;49.042;9.092;2023-03-31T00:04:17;19.23;;;3.10;;
15603;SDS011;7902;49.042;9.092;2023-03-31T00:06:43;18.67;;;3.10;;
15603;SDS011;7902;49.042;9.092;2023-03-31T00:09:11;17.53;;;3.67;;
15603;SDS011;7902;49.042;9.092;2023-03-31T00:11:38;24.23;;;3.50;;
15603;SDS011;7902;49.042;9.092;2023-03-31T00:14:05;17.17;;;2.73;;
15603;SDS011;7902;49.042;9.092;2023-03-31T00:16:33;12.27;;;2.23;;
15603;SDS011;7902;49.042;9.092;2023-03-31T00:18:59;16.67;;;2.70;;
15603;SDS011;7902;49.042;9.092;2023-03-31T00:21:26;15.27;;;2.40;;
15603;SDS011;7902;49.042;9.092;2023-03-31T00:24:00;13.70;;;1.77;;
15603;SDS011;7902;49.042;9.092;2023-03-31T00:26:30;18.27;;;2.13;;
15603;SDS011;7902;49.042;9.092;2023-03-31T00:28:58;16.00;;;2.27;;
15603;SDS011;7902;49.042;9.092;2023-03-31T00:33:53;15.80;;;2.30;;
15603;SDS011;7902;49.042;9.092;2023-03-31T00:36:20;15.87;;;2.40;;
15603;SDS011;7902;49.042;9.092;2023-03-31T00:38:52;19.67;;;2.33;;
15603;SDS011;7902;49.042;9.092;2023-03-31T00:41:24;11.53;;;1.97;;
15603;SDS011;7902;49.042;9.092;2023-03-31T00:44:04;17.23;;;2.10;;
15603;SDS011;7902;49.042;9.092;2023-03-31T00:46:49;14.37;;;2.07;;
15603;SDS011;7902;49.042;9.092;2023-03-31T00:49:28;12.60;;;1.53;;
15603;SDS011;7902;49.042;9.092;2023-03-31T00:54:49;14.27;;;1.73;;
15603;SDS011;7902;49.042;9.092;2023-03-31T00:57:18;15.87;;;1.60;;
15603;SDS011;7902;49.042;9.092;2023-03-31T00:59:50;11.70;;;1.40;;
15603;SDS011;7902;49.042;9.092;2023-03-31T01:02:20;12.30;;;1.80;;
15603;SDS011;7902;49.042;9.092;2023-03-31T01:04:51;14.00;;;1.63;;
15603;SDS011;7902;49.042;9.092;2023-03-31T01:10:08;14.60;;;1.50;;
15603;SDS011;7902;49.042;9.092;2023-03-31T01:12:39;17.60;;;2.10;;
15603;SDS011;7902;49.042;9.092;2023-03-31T01:15:07;16.03;;;1.83;;
15603;SDS011;7902;49.042;9.092;2023-03-31T01:17:34;19.17;;;2.00;;
15603;SDS011;7902;49.042;9.092;2023-03-31T01:25:54;11.53;;;1.50;;
15603;SDS011;7902;49.042;9.092;2023-03-31T01:37:04;20.73;;;2.47;;
15603;SDS011;7902;49.042;9.092;2023-03-31T01:55:44;11.70;;;1.50;;
15603;SDS011;7902;49.042;9.092;2023-03-31T01:58:19;15.73;;;1.93;;
15603;SDS011;7902;49.042;9.092;2023-03-31T02:00:59;14.73;;;1.50;;
15603;SDS011;7902;49.042;9.092;2023-03-31T02:03:34;14.50;;;1.83;;
15603;SDS011;7902;49.042;9.092;2023-03-31T02:06:15;16.20;;;1.80;;
15603;SDS011;7902;49.042;9.092;2023-03-31T02:08:48;15.70;;;1.50;;
15603;SDS011;7902;49.042;9.092;2023-03-31T02:11:24;14.37;;;1.63;;
15603;SDS011;7902;49.042;9.092;2023-03-31T02:13:54;13.90;;;1.30;;
15603;SDS011;7902;49.042;9.092;2023-03-31T02:16:22;11.87;;;1.60;;
15603;SDS011;7902;49.042;9.092;2023-03-31T02:18:52;13.67;;;1.40;;
15603;SDS011;7902;49.042;9.092;2023-03-31T02:21:36;12.33;;;1.50;;
15603;SDS011;7902;49.042;9.092;2023-03-31T02:24:05;13.93;;;1.67;;
15603;SDS011;7902;49.042;9.092;2023-03-31T02:26:36;21.93;;;2.10;;
15603;SDS011;7902;49.042;9.092;2023-03-31T02:29:06;13.87;;;1.60;;
15603;SDS011;7902;49.042;9.092;2023-03-31T02:34:04;14.43;;;1.43;;
15603;SDS011;7902;49.042;9.092;2023-03-31T02:36:30;13.43;;;1.47;;
15603;SDS011;7902;49.042;9.092;2023-03-31T02:38:58;12.57;;;1.37;;
15603;SDS011;7902;49.042;9.092;2023-03-31T02:41:29;15.93;;;1.80;;
15603;SDS011;7902;49.042;9.092;2023-03-31T02:43:56;13.33;;;1.07;;
15603;SDS011;7902;49.042;9.092;2023-03-31T02:46:22;15.83;;;1.63;;
15603;SDS011;7902;49.042;9.092;2023-03-31T02:48:49;19.13;;;1.43;;
15603;SDS011;7902;49.042;9.092;2023-03-31T02:51:29;18.70;;;1.70;;
15603;SDS011;7902;49.042;9.092;2023-03-31T03:05:34;14.07;;;1.80;;
15603;SDS011;7902;49.042;9.092;2023-03-31T03:13:54;17.30;;;1.43;;
15603;SDS011;7902;49.042;9.092;2023-03-31T03:16:43;11.37;;;1.23;;
15603;SDS011;7902;49.042;9.092;2023-03-31T03:19:20;17.10;;;2.70;;
15603;SDS011;7902;49.042;9.092;2023-03-31T03:21:47;15.50;;;1.60;;
15603;SDS011;7902;49.042;9.092;2023-03-31T03:24:16;16.90;;;1.63;;
15603;SDS011;7902;49.042;9.092;2023-03-31T03:26:43;12.70;;;1.73;;
15603;SDS011;7902;49.042;9.092;2023-03-31T03:29:11;12.37;;;1.67;;
15603;SDS011;7902;49.042;9.092;2023-03-31T03:31:40;15.67;;;1.97;;
15603;SDS011;7902;49.042;9.092;2023-03-31T03:34:07;15.47;;;1.70;;
15603;SDS011;7902;49.042;9.092;2023-03-31T03:36:37;15.90;;;1.70;;
15603;SDS011;7902;49.042;9.092;2023-03-31T03:39:04;11.17;;;1.60;;
15603;SDS011;7902;49.042;9.092;2023-03-31T03:41:32;15.60;;;1.60;;
15603;SDS011;7902;49.042;9.092;2023-03-31T03:43:59;14.80;;;1.57;;
15603;SDS011;7902;49.042;9.092;2023-03-31T03:46:25;13.23;;;1.43;;
15603;SDS011;7902;49.042;9.092;2023-03-31T03:48:51;12.33;;;2.00;;
15603;SDS011;7902;49.042;9.092;2023-03-31T03:51:17;14.80;;;1.53;;
15603;SDS011;7902;49.042;9.092;2023-03-31T03:53:43;14.33;;;1.70;;
15603;SDS011;7902;49.042;9.092;2023-03-31T03:56:09;14.20;;;1.97;;
15603;SDS011;7902;49.042;9.092;2023-03-31T03:58:35;15.03;;;2.17;;
15603;SDS011;7902;49.042;9.092;2023-03-31T04:01:01;13.87;;;2.10;;
15603;SDS011;7902;49.042;9.092;2023-03-31T04:03:27;12.87;;;1.60;;
15603;SDS011;7902;49.042;9.092;2023-03-31T04:05:53;11.90;;;2.07;;
15603;SDS011;7902;49.042;9.092;2023-03-31T04:08:19;14.90;;;2.10;;
15603;SDS011;7902;49.042;9.092;2023-03-31T04:10:45;15.17;;;2.87;;
15603;SDS011;7902;49.042;9.092;2023-03-31T04:13:14;23.27;;;2.63;;
15603;SDS011;7902;49.042;9.092;2023-03-31T04:15:41;12.83;;;2.33;;
15603;SDS011;7902;49.042;9.092;2023-03-31T04:18:07;17.37;;;2.67;;
15603;SDS011;7902;49.042;9.092;2023-03-31T04:20:38;13.80;;;1.80;;
15603;SDS011;7902;49.042;9.092;2023-03-31T04:23:04;16.23;;;2.33;;
15603;SDS011;7902;49.042;9.092;2023-03-31T04:25:30;14.53;;;1.67;;
15603;SDS011;7902;49.042;9.092;2023-03-31T04:27:56;15.60;;;1.60;;
15603;SDS011;7902;49.042;9.092;2023-03-31T04:30:22;11.40;;;1.67;;
15603;SDS011;7902;49.042;9.092;2023-03-31T04:32:56;14.20;;;1.83;;
15603;SDS011;7902;49.042;9.092;2023-03-31T04:35:25;15.63;;;1.83;;
15603;SDS011;7902;49.042;9.092;2023-03-31T04:38:03;12.37;;;1.73;;
15603;SDS011;7902;49.042;9.092;2023-03-31T04:40:28;14.70;;;2.40;;
15603;SDS011;7902;49.042;9.092;2023-03-31T04:42:54;15.63;;;1.80;;
15603;SDS011;7902;49.042;9.092;2023-03-31T04:45:20;13.20;;;1.70;;
15603;SDS011;7902;49.042;9.092;2023-03-31T04:47:46;20.87;;;2.60;;
15603;SDS011;7902;49.042;9.092;2023-03-31T04:50:12;12.10;;;1.70;;
15603;SDS011;7902;49.042;9.092;2023-03-31T04:52:38;12.80;;;1.87;;
15603;SDS011;7902;49.042;9.092;2023-03-31T04:55:04;12.93;;;1.70;;
15603;SDS011;7902;49.042;9.092;2023-03-31T04:57:31;19.13;;;2.13;;
15603;SDS011;7902;49.042;9.092;2023-03-31T04:59:57;12.83;;;1.87;;
15603;SDS011;7902;49.042;9.092;2023-03-31T05:02:22;15.63;;;1.90;;
15603;SDS011;7902;49.042;9.092;2023-03-31T05:04:49;12.90;;;2.10;;
15603;SDS011;7902;49.042;9.092;2023-03-31T05:07:16;14.43;;;2.03;;
15603;SDS011;7902;49.042;9.092;2023-03-31T05:09:45;12.47;;;2.30;;
15603;SDS011;7902;49.042;9.092;2023-03-31T05:12:11;13.17;;;1.60;;
15603;SDS011;7902;49.042;9.092;2023-03-31T05:14:37;15.57;;;2.07;;
15603;SDS011;7902;49.042;9.092;2023-03-31T05:17:03;12.83;;;2.20;;
15603;SDS011;7902;49.042;9.092;2023-03-31T05:19:29;16.40;;;2.10;;
15603;SDS011;7902;49.042;9.092;2023-03-31T05:21:55;15.93;;;1.83;;
15603;SDS011;7902;49.042;9.092;2023-03-31T05:24:20;13.87;;;2.10;;
15603;SDS011;7902;49.042;9.092;2023-03-31T05:26:46;16.80;;;2.10;;
15603;SDS011;7902;49.042;9.092;2023-03-31T05:29:17;13.13;;;2.27;;
15603;SDS011;7902;49.042;9.092;2023-03-31T05:31:44;12.53;;;2.37;;
15603;SDS011;7902;49.042;9.092;2023-03-31T05:34:10;13.77;;;2.60;;
15603;SDS011;7902;49.042;9.092;2023-03-31T05:36:36;12.67;;;2.80;;
15603;SDS011;7902;49.042;9.092;2023-03-31T05:39:03;14.70;;;2.60;;
15603;SDS011;7902;49.042;9.092;2023-03-31T05:41:30;17.47;;;2.77;;
15603;SDS011;7902;49.042;9.092;2023-03-31T05:43:56;19.23;;;2.13;;
15603;SDS011;7902;49.042;9.092;2023-03-31T05:46:22;13.37;;;2.50;;
15603;SDS011;7902;49.042;9.092;2023-03-31T05:48:48;14.97;;;2.30;;
15603;SDS011;7902;49.042;9.092;2023-03-31T05:51:14;21.63;;;2.70;;
15603;SDS011;7902;49.042;9.092;2023-03-31T05:53:40;11.93;;;2.00;;
15603;SDS011;7902;49.042;9.092;2023-03-31T05:56:06;20.97;;;2.90;;
15603;SDS011;7902;49.042;9.092;2023-03-31T05:58:33;18.20;;;3.10;;
15603;SDS011;7902;49.042;9.092;2023-03-31T06:03:35;16.10;;;3.10;;
15603;SDS011;7902;49.042;9.092;2023-03-31T06:06:02;14.30;;;2.80;;
15603;SDS011;7902;49.042;9.092;2023-03-31T06:08:33;17.07;;;3.50;;
15603;SDS011;7902;49.042;9.092;2023-03-31T06:10:59;19.27;;;3.40;;
15603;SDS011;7902;49.042;9.092;2023-03-31T06:13:29;16.33;;;3.10;;
15603;SDS011;7902;49.042;9.092;2023-03-31T06:15:55;16.80;;;2.50;;
15603;SDS011;7902;49.042;9.092;2023-03-31T06:18:23;17.77;;;3.47;;
15603;SDS011;7902;49.042;9.092;2023-03-31T06:20:50;13.63;;;3.10;;
15603;SDS011;7902;49.042;9.092;2023-03-31T06:23:16;17.80;;;4.20;;
15603;SDS011;7902;49.042;9.092;2023-03-31T06:25:42;24.53;;;3.70;;
15603;SDS011;7902;49.042;9.092;2023-03-31T06:28:08;28.90;;;3.40;;
15603;SDS011;7902;49.042;9.092;2023-03-31T06:30:34;17.20;;;3.27;;
15603;SDS011;7902;49.042;9.092;2023-03-31T06:33:00;19.30;;;3.80;;
15603;SDS011;7902;49.042;9.092;2023-03-31T06:35:26;17.87;;;3.17;;
15603;SDS011;7902;49.042;9.092;2023-03-31T06:37:52;16.90;;;3.10;;
15603;SDS011;7902;49.042;9.092;2023-03-31T06:40:18;24.03;;;3.20;;
15603;SDS011;7902;49.042;9.092;2023-03-31T06:42:44;20.17;;;3.67;;
15603;SDS011;7902;49.042;9.092;2023-03-31T06:45:10;21.13;;;3.13;;
15603;SDS011;7902;49.042;9.092;2023-03-31T06:47:36;15.07;;;2.90;;
15603;SDS011;7902;49.042;9.092;2023-03-31T06:50:06;20.93;;;3.67;;
15603;SDS011;7902;49.042;9.092;2023-03-31T06:52:34;15.93;;;3.50;;
15603;SDS011;7902;49.042;9.092;2023-03-31T06:55:00;12.50;;;3.10;;
15603;SDS011;7902;49.042;9.092;2023-03-31T06:57:26;20.90;;;3.13;;
15603;SDS011;7902;49.042;9.092;2023-03-31T06:59:53;13.57;;;3.33;;
15603;SDS011;7902;49.042;9.092;2023-03-31T07:02:19;19.40;;;3.07;;
15603;SDS011;7902;49.042;9.092;2023-03-31T07:04:45;15.93;;;2.80;;
15603;SDS011;7902;49.042;9.092;2023-03-31T07:07:11;14.83;;;3.70;;
15603;SDS011;7902;49.042;9.092;2023-03-31T07:09:37;22.30;;;2.90;;
15603;SDS011;7902;49.042;9.092;2023-03-31T07:12:03;23.50;;;3.60;;
15603;SDS011;7902;49.042;9.092;2023-03-31T07:14:30;18.47;;;4.37;;
15603;SDS011;7902;49.042;9.092;2023-03-31T07:16:56;23.63;;;4.03;;
15603;SDS011;7902;49.042;9.092;2023-03-31T07:19:22;25.27;;;3.47;;
15603;SDS011;7902;49.042;9.092;2023-03-31T07:21:49;18.07;;;3.37;;
15603;SDS011;7902;49.042;9.092;2023-03-31T07:24:15;30.50;;;4.23;;
15603;SDS011;7902;49.042;9.092;2023-03-31T07:26:41;25.80;;;5.43;;
15603;SDS011;7902;49.042;9.092;2023-03-31T07:29:06;23.57;;;3.90;;
15603;SDS011;7902;49.042;9.092;2023-03-31T07:31:32;16.10;;;3.30;;
15603;SDS011;7902;49.042;9.092;2023-03-31T07:33:59;16.13;;;3.60;;
15603;SDS011;7902;49.042;9.092;2023-03-31T07:36:27;18.70;;;4.00;;
15603;SDS011;7902;49.042;9.092;2023-03-31T07:38:53;14.03;;;3.23;;
15603;SDS011;7902;49.042;9.092;2023-03-31T07:41:20;17.40;;;3.43;;
15603;SDS011;7902;49.042;9.092;2023-03-31T07:43:46;22.83;;;4.40;;
15603;SDS011;7902;49.042;9.092;2023-03-31T07:46:13;16.17;;;4.00;;
15603;SDS011;7902;49.042;9.092;2023-03-31T07:48:42;20.20;;;4.13;;
15603;SDS011;7902;49.042;9.092;2023-03-31T07:51:08;16.40;;;3.10;;
15603;SDS011;7902;49.042;9.092;2023-03-31T07:53:35;16.20;;;3.40;;
15603;SDS011;7902;49.042;9.092;2023-03-31T07:56:01;15.23;;;2.73;;
15603;SDS011;7902;49.042;9.092;2023-03-31T07:58:27;11.77;;;2.80;;
15603;SDS011;7902;49.042;9.092;2023-03-31T08:00:53;14.83;;;2.57;;
15603;SDS011;7902;49.042;9.092;2023-03-31T08:03:19;12.97;;;2.63;;
15603;SDS011;7902;49.042;9.092;2023-03-31T08:05:45;13.90;;;3.47;;
15603;SDS011;7902;49.042;9.092;2023-03-31T08:08:11;12.97;;;2.17;;
15603;SDS011;7902;49.042;9.092;2023-03-31T08:10:37;14.00;;;2.40;;
15603;SDS011;7902;49.042;9.092;2023-03-31T08:13:03;14.03;;;2.23;;
15603;SDS011;7902;49.042;9.092;2023-03-31T08:15:28;10.50;;;1.87;;
15603;SDS011;7902;49.042;9.092;2023-03-31T08:17:54;15.20;;;2.20;;
15603;SDS011;7902;49.042;9.092;2023-03-31T08:20:20;14.20;;;2.13;;
15603;SDS011;7902;49.042;9.092;2023-03-31T08:22:46;13.37;;;2.00;;
15603;SDS011;7902;49.042;9.092;2023-03-31T08:25:12;15.27;;;1.50;;
15603;SDS011;7902;49.042;9.092;2023-03-31T08:27:38;10.87;;;1.50;;
15603;SDS011;7902;49.042;9.092;2023-03-31T08:30:06;12.30;;;1.80;;
15603;SDS011;7902;49.042;9.092;2023-03-31T08:32:34;13.63;;;1.40;;
15603;SDS011;7902;49.042;9.092;2023-03-31T08:35:00;16.00;;;1.50;;
15603;SDS011;7902;49.042;9.092;2023-03-31T08:37:26;10.40;;;1.30;;
15603;SDS011;7902;49.042;9.092;2023-03-31T08:39:53;10.70;;;1.40;;
15603;SDS011;7902;49.042;9.092;2023-03-31T08:42:42;15.10;;;1.60;;
15603;SDS011;7902;49.042;9.092;2023-03-31T08:45:19;10.90;;;1.40;;
15603;SDS011;7902;49.042;9.092;2023-03-31T08:47:49;14.67;;;1.67;;
15603;SDS011;7902;49.042;9.092;2023-03-31T08:50:24;14.37;;;1.70;;
15603;SDS011;7902;49.042;9.092;2023-03-31T08:55:54;17.03;;;2.37;;
15603;SDS011;7902;49.042;9.092;2023-03-31T09:18:14;15.63;;;1.97;;
15603;SDS011;7902;49.042;9.092;2023-03-31T09:20:47;13.93;;;1.83;;
15603;SDS011;7902;49.042;9.092;2023-03-31T09:23:24;16.03;;;1.77;;
15603;SDS011;7902;49.042;9.092;2023-03-31T09:25:55;14.73;;;1.60;;
15603;SDS011;7902;49.042;9.092;2023-03-31T09:28:30;17.20;;;2.20;;
15603;SDS011;7902;49.042;9.092;2023-03-31T09:31:02;19.83;;;1.60;;
15603;SDS011;7902;49.042;9.092;2023-03-31T09:33:33;11.70;;;1.37;;
15603;SDS011;7902;49.042;9.092;2023-03-31T09:35:59;17.07;;;1.97;;
15603;SDS011;7902;49.042;9.092;2023-03-31T09:38:26;28.83;;;2.17;;
15603;SDS011;7902;49.042;9.092;2023-03-31T09:40:55;12.50;;;1.47;;
15603;SDS011;7902;49.042;9.092;2023-03-31T09:43:23;13.13;;;1.47;;
15603;SDS011;7902;49.042;9.092;2023-03-31T09:45:52;19.50;;;1.90;;
15603;SDS011;7902;49.042;9.092;2023-03-31T09:48:19;18.67;;;1.80;;
15603;SDS011;7902;49.042;9.092;2023-03-31T09:50:49;20.07;;;2.50;;
15603;SDS011;7902;49.042;9.092;2023-03-31T09:56:11;20.13;;;2.53;;
15603;SDS011;7902;49.042;9.092;2023-03-31T09:58:42;18.90;;;2.17;;
15603;SDS011;7902;49.042;9.092;2023-03-31T10:01:09;24.13;;;2.00;;
15603;SDS011;7902;49.042;9.092;2023-03-31T10:03:50;19.33;;;2.20;;
15603;SDS011;7902;49.042;9.092;2023-03-31T10:06:20;15.13;;;2.10;;
15603;SDS011;7902;49.042;9.092;2023-03-31T10:09:01;14.30;;;1.67;;
15603;SDS011;7902;49.042;9.092;2023-03-31T10:11:29;12.77;;;1.40;;
15603;SDS011;7902;49.042;9.092;2023-03-31T10:14:01;21.37;;;2.63;;
15603;SDS011;7902;49.042;9.092;2023-03-31T10:16:33;22.83;;;2.50;;
15603;SDS011;7902;49.042;9.092;2023-03-31T10:21:41;16.10;;;2.07;;
15603;SDS011;7902;49.042;9.092;2023-03-31T10:24:10;19.00;;;1.70;;
15603;SDS011;7902;49.042;9.092;2023-03-31T10:26:36;16.43;;;2.00;;
15603;SDS011;7902;49.042;9.092;2023-03-31T10:29:11;18.17;;;2.27;;
15603;SDS011;7902;49.042;9.092;2023-03-31T10:31:38;13.67;;;1.73;;
15603;SDS011;7902;49.042;9.092;2023-03-31T10:34:05;18.80;;;1.90;;
15603;SDS011;7902;49.042;9.092;2023-03-31T10:36:33;17.43;;;1.80;;
15603;SDS011;7902;49.042;9.092;2023-03-31T10:39:03;14.83;;;1.60;;
15603;SDS011;7902;49.042;9.092;2023-03-31T10:41:31;16.40;;;1.80;;
15603;SDS011;7902;49.042;9.092;2023-03-31T10:44:03;15.80;;;1.63;;
15603;SDS011;7902;49.042;9.092;2023-03-31T10:46:42;11.53;;;1.33;;
15603;SDS011;7902;49.042;9.092;2023-03-31T10:49:23;18.73;;;1.70;;
15603;SDS011;7902;49.042;9.092;2023-03-31T10:51:54;14.13;;;1.30;;
15603;SDS011;7902;49.042;9.092;2023-03-31T10:54:22;18.80;;;1.57;;
15603;SDS011;7902;49.042;9.092;2023-03-31T10:56:52;17.57;;;2.17;;
15603;SDS011;7902;49.042;9.092;2023-03-31T10:59:33;17.93;;;2.10;;
15603;SDS011;7902;49.042;9.092;2023-03-31T11:04:58;20.37;;;2.87;;
15603;SDS011;7902;49.042;9.092;2023-03-31T11:19:28;13.93;;;1.30;;
15603;SDS011;7902;49.042;9.092;2023-03-31T11:30:15;11.63;;;1.50;;
15603;SDS011;7902;49.042;9.092;2023-03-31T11:43:29;13.03;;;1.17;;
15603;SDS011;7902;49.042;9.092;2023-03-31T11:46:17;10.20;;;1.30;;
15603;SDS011;7902;49.042;9.092;2023-03-31T11:51:24;13.47;;;1.30;;
15603;SDS011;7902;49.042;9.092;2023-03-31T11:53:55;10.77;;;1.33;;
15603;SDS011;7902;49.042;9.092;2023-03-31T11:56:25;11.00;;;1.10;;
15603;SDS011;7902;49.042;9.092;2023-03-31T11:58:58;9.77;;;0.80;;
15603;SDS011;7902;49.042;9.092;2023-03-31T12:04:25;11.47;;;1.20;;
15603;SDS011;7902;49.042;9.092;2023-03-31T12:06:54;15.20;;;3.40;;
15603;SDS011;7902;49.042;9.092;2023-03-31T12:09:26;12.00;;;1.50;;
15603;SDS011;7902;49.042;9.092;2023-03-31T12:12:02;11.63;;;1.07;;
15603;SDS011;7902;49.042;9.092;2023-03-31T12:14:40;13.47;;;1.13;;
15603;SDS011;7902;49.042;9.092;2023-03-31T12:17:12;10.00;;;0.70;;
15603;SDS011;7902;49.042;9.092;2023-03-31T12:22:14;11.37;;;1.00;;
15603;SDS011;7902;49.042;9.092;2023-03-31T12:24:41;15.50;;;2.53;;
15603;SDS011;7902;49.042;9.092;2023-03-31T12:27:12;16.63;;;1.37;;
15603;SDS011;7902;49.042;9.092;2023-03-31T12:30:17;18.77;;;3.60;;
15603;SDS011;7902;49.042;9.092;2023-03-31T12:32:46;18.70;;;4.80;;
15603;SDS011;7902;49.042;9.092;2023-03-31T12:35:21;22.67;;;2.47;;
15603;SDS011;7902;49.042;9.092;2023-03-31T12:40:53;13.57;;;1.63;;
15603;SDS011;7902;49.042;9.092;2023-03-31T12:43:36;15.83;;;1.40;;
15603;SDS011;7902;49.042;9.092;2023-03-31T12:49:08;15.23;;;1.40;;
15603;SDS011;7902;49.042;9.092;2023-03-31T12:55:03;13.83;;;1.60;;
15603;SDS011;7902;49.042;9.092;2023-03-31T12:57:34;14.17;;;1.57;;
15603;SDS011;7902;49.042;9.092;2023-03-31T13:02:38;14.00;;;1.30;;
15603;SDS011;7902;49.042;9.092;2023-03-31T13:08:03;25.23;;;2.10;;
15603;SDS011;7902;49.042;9.092;2023-03-31T13:10:30;16.73;;;1.63;;
15603;SDS011;7902;49.042;9.092;2023-03-31T13:13:01;24.90;;;2.43;;
15603;SDS011;7902;49.042;9.092;2023-03-31T13:15:29;16.73;;;2.20;;
15603;SDS011;7902;49.042;9.092;2023-03-31T13:17:59;14.90;;;2.20;;
15603;SDS011;7902;49.042;9.092;2023-03-31T13:20:31;16.00;;;2.67;;
15603;SDS011;7902;49.042;9.092;2023-03-31T13:23:04;15.97;;;2.60;;
15603;SDS011;7902;49.042;9.092;2023-03-31T13:25:43;14.30;;;1.30;;
15603;SDS011;7902;49.042;9.092;2023-03-31T13:28:15;14.20;;;1.50;;
15603;SDS011;7902;49.042;9.092;2023-03-31T13:33:33;13.20;;;1.00;;
15603;SDS011;7902;49.042;9.092;2023-03-31T13:36:14;13.17;;;1.23;;
15603;SDS011;7902;49.042;9.092;2023-03-31T13:47:38;13.60;;;1.00;;
15603;SDS011;7902;49.042;9.092;2023-03-31T14:01:33;11.93;;;1.13;;
15603;SDS011;7902;49.042;9.092;2023-03-31T14:04:15;12.70;;;1.27;;
15603;SDS011;7902;49.042;9.092;2023-03-31T14:07:11;12.10;;;1.13;;
15603;SDS011;7902;49.042;9.092;2023-03-31T14:09:40;15.33;;;1.47;;
15603;SDS011;7902;49.042;9.092;2023-03-31T14:12:18;16.07;;;1.63;;
15603;SDS011;7902;49.042;9.092;2023-03-31T14:14:46;12.10;;;1.00;;
15603;SDS011;7902;49.042;9.092;2023-03-31T14:17:13;13.10;;;1.20;;
15603;SDS011;7902;49.042;9.092;2023-03-31T14:31:43;17.37;;;1.60;;
15603;SDS011;7902;49.042;9.092;2023-03-31T14:39:27;15.10;;;1.40;;
15603;SDS011;7902;49.042;9.092;2023-03-31T14:42:02;16.57;;;2.20;;
15603;SDS011;7902;49.042;9.092;2023-03-31T14:44:31;14.27;;;1.40;;
15603;SDS011;7902;49.042;9.092;2023-03-31T14:46:58;14.60;;;1.40;;
15603;SDS011;7902;49.042;9.092;2023-03-31T14:49:34;16.10;;;2.10;;
15603;SDS011;7902;49.042;9.092;2023-03-31T14:52:10;22.20;;;6.27;;
15603;SDS011;7902;49.042;9.092;2023-03-31T14:54:43;15.10;;;2.03;;
15603;SDS011;7902;49.042;9.092;2023-03-31T14:57:14;13.50;;;2.00;;
15603;SDS011;7902;49.042;9.092;2023-03-31T14:59:45;18.33;;;4.63;;
15603;SDS011;7902;49.042;9.092;2023-03-31T15:02:16;18.43;;;3.23;;
15603;SDS011;7902;49.042;9.092;2023-03-31T15:04:58;14.80;;;2.03;;
15603;SDS011;7902;49.042;9.092;2023-03-31T15:07:27;13.37;;;1.40;;
15603;SDS011;7902;49.042;9.092;2023-03-31T15:09:53;16.80;;;1.50;;
15603;SDS011;7902;49.042;9.092;2023-03-31T15:12:19;13.80;;;1.30;;
15603;SDS011;7902;49.042;9.092;2023-03-31T15:14:48;12.13;;;1.00;;
15603;SDS011;7902;49.042;9.092;2023-03-31T15:17:29;13.10;;;0.90;;
15603;SDS011;7902;49.042;9.092;2023-03-31T15:20:00;12.43;;;1.17;;
15603;SDS011;7902;49.042;9.092;2023-03-31T15:22:42;11.73;;;1.00;;
15603;SDS011;7902;49.042;9.092;2023-03-31T15:25:11;14.73;;;1.17;;
15603;SDS011;7902;49.042;9.092;2023-03-31T15:27:40;17.00;;;1.50;;
15603;SDS011;7902;49.042;9.092;2023-03-31T15:30:18;13.70;;;0.90;;
15603;SDS011;7902;49.042;9.092;2023-03-31T15:32:47;11.67;;;1.17;;
15603;SDS011;7902;49.042;9.092;2023-03-31T15:35:24;20.20;;;1.77;;
15603;SDS011;7902;49.042;9.092;2023-03-31T15:37:54;11.83;;;1.00;;
15603;SDS011;7902;49.042;9.092;2023-03-31T15:40:24;13.40;;;1.33;;
15603;SDS011;7902;49.042;9.092;2023-03-31T15:42:52;13.00;;;1.30;;
15603;SDS011;7902;49.042;9.092;2023-03-31T15:48:21;13.70;;;1.13;;
15603;SDS011;7902;49.042;9.092;2023-03-31T15:50:58;14.23;;;1.20;;
15603;SDS011;7902;49.042;9.092;2023-03-31T15:55:55;12.50;;;1.40;;
15603;SDS011;7902;49.042;9.092;2023-03-31T15:58:45;12.87;;;1.73;;
15603;SDS011;7902;49.042;9.092;2023-03-31T16:01:26;15.43;;;1.57;;
15603;SDS011;7902;49.042;9.092;2023-03-31T16:03:57;11.70;;;1.67;;
15603;SDS011;7902;49.042;9.092;2023-03-31T16:09:20;17.03;;;3.10;;
15603;SDS011;7902;49.042;9.092;2023-03-31T16:11:52;12.23;;;1.67;;
15603;SDS011;7902;49.042;9.092;2023-03-31T16:14:25;14.13;;;2.50;;
15603;SDS011;7902;49.042;9.092;2023-03-31T16:16:58;16.30;;;2.77;;
15603;SDS011;7902;49.042;9.092;2023-03-31T16:19:29;16.03;;;2.20;;
15603;SDS011;7902;49.042;9.092;2023-03-31T16:22:06;15.17;;;2.20;;
15603;SDS011;7902;49.042;9.092;2023-03-31T16:24:38;18.53;;;4.17;;
15603;SDS011;7902;49.042;9.092;2023-03-31T16:27:04;16.00;;;2.00;;
15603;SDS011;7902;49.042;9.092;2023-03-31T16:29:34;12.67;;;1.53;;
15603;SDS011;7902;49.042;9.092;2023-03-31T16:32:09;17.57;;;1.63;;
15603;SDS011;7902;49.042;9.092;2023-03-31T16:34:56;11.50;;;1.23;;
15603;SDS011;7902;49.042;9.092;2023-03-31T16:37:24;16.97;;;1.70;;
15603;SDS011;7902;49.042;9.092;2023-03-31T16:39:50;11.30;;;1.00;;
15603;SDS011;7902;49.042;9.092;2023-03-31T16:42:16;12.77;;;0.80;;
15603;SDS011;7902;49.042;9.092;2023-03-31T16:44:43;11.13;;;0.73;;
15603;SDS011;7902;49.042;9.092;2023-03-31T16:47:14;17.63;;;1.00;;
15603;SDS011;7902;49.042;9.092;2023-03-31T16:49:40;11.23;;;1.07;;
15603;SDS011;7902;49.042;9.092;2023-03-31T16:52:06;12.87;;;1.10;;
15603;SDS011;7902;49.042;9.092;2023-03-31T16:54:34;13.03;;;1.40;;
15603;SDS011;7902;49.042;9.092;2023-03-31T16:57:00;11.73;;;1.33;;
15603;SDS011;7902;49.042;9.092;2023-03-31T16:59:26;13.57;;;1.87;;
15603;SDS011;7902;49.042;9.092;2023-03-31T17:01:52;12.13;;;1.00;;
15603;SDS011;7902;49.042;9.092;2023-03-31T17:04:18;14.67;;;1.37;;
15603;SDS011;7902;49.042;9.092;2023-03-31T17:06:45;12.00;;;1.10;;
15603;SDS011;7902;49.042;9.092;2023-03-31T17:09:11;14.60;;;1.27;;
15603;SDS011;7902;49.042;9.092;2023-03-31T17:11:36;12.03;;;1.00;;
15603;SDS011;7902;49.042;9.092;2023-03-31T17:14:02;15.87;;;1.53;;
15603;SDS011;7902;49.042;9.092;2023-03-31T17:16:30;14.23;;;1.10;;
15603;SDS011;7902;49.042;9.092;2023-03-31T17:18:56;12.90;;;0.90;;
15603;SDS011;7902;49.042;9.092;2023-03-31T17:21:22;12.27;;;1.60;;
15603;SDS011;7902;49.042;9.092;2023-03-31T17:23:49;14.43;;;1.60;;
15603;SDS011;7902;49.042;9.092;2023-03-31T17:26:15;12.50;;;1.67;;
15603;SDS011;7902;49.042;9.092;2023-03-31T17:28:41;13.10;;;1.30;;
15603;SDS011;7902;49.042;9.092;2023-03-31T17:31:14;11.37;;;1.20;;
15603;SDS011;7902;49.042;9.092;2023-03-31T17:33:42;13.27;;;1.30;;
15603;SDS011;7902;49.042;9.092;2023-03-31T17:36:08;12.83;;;1.00;;
15603;SDS011;7902;49.042;9.092;2023-03-31T17:38:35;10.60;;;1.00;;
15603;SDS011;7902;49.042;9.092;2023-03-31T17:41:04;14.03;;;1.17;;
15603;SDS011;7902;49.042;9.092;2023-03-31T17:43:31;11.40;;;1.13;;
15603;SDS011;7902;49.042;9.092;2023-03-31T17:46:05;10.23;;;1.00;;
15603;SDS011;7902;49.042;9.092;2023-03-31T17:48:33;17.80;;;1.53;;
15603;SDS011;7902;49.042;9.092;2023-03-31T17:51:05;18.43;;;1.17;;
15603;SDS011;7902;49.042;9.092;2023-03-31T17:53:40;9.50;;;1.00;;
15603;SDS011;7902;49.042;9.092;2023-03-31T17:56:07;27.17;;;4.87;;
15603;SDS011;7902;49.042;9.092;2023-03-31T17:58:33;12.00;;;1.10;;
15603;SDS011;7902;49.042;9.092;2023-03-31T18:00:59;26.37;;;4.40;;
15603;SDS011;7902;49.042;9.092;2023-03-31T18:03:27;14.77;;;1.37;;
15603;SDS011;7902;49.042;9.092;2023-03-31T18:05:54;18.97;;;1.60;;
15603;SDS011;7902;49.042;9.092;2023-03-31T18:08:20;12.70;;;1.40;;
15603;SDS011;7902;49.042;9.092;2023-03-31T18:10:46;12.97;;;1.60;;
15603;SDS011;7902;49.042;9.092;2023-03-31T18:13:12;11.23;;;1.17;;
15603;SDS011;7902;49.042;9.092;2023-03-31T18:15:38;18.97;;;2.17;;
15603;SDS011;7902;49.042;9.092;2023-03-31T18:18:04;13.63;;;2.70;;